Frugy — FVQF — position and weather

sailwx.info

Track history (hours):
 
Tides and Currents Weather Stations Pressure Air Temp Water Temp Dewpoint Dewpoint Depression Visibility Wind Speed Wind Dir Waves Ship Positions

Frugy

Last reported at 2017-Sep-22 01:00 UTC. Time now 2017-Sep-22 01:13 UTC.
Position N 47°49' W 003°56'.

Length 16 m.

Type: Fishing. MMSI: 228218000.

Date/timePositionNaut miles runAvg speedWind from/ knotsBaromVisibWave heightAir tempDewpointWater temp
2017-Sep-22 01:00N 47°49' W 003°56'4 8.2
2017-Sep-22 00:30N 47°45' W 003°56'4 8.1
2017-Sep-21 23:58N 47°41' W 003°57'4 7.7
2017-Sep-21 23:29N 47°37' W 003°59'5 7.8
2017-Sep-21 22:55N 47°33' W 004°02'3 7.8
2017-Sep-21 22:29N 47°30' W 004°05'4 7.7
2017-Sep-21 21:57N 47°27' W 004°08'1 3.2
2017-Sep-21 21:30N 47°26' W 004°08'3 0.7
2017-Sep-21 17:38N 47°23' W 004°10'0 3.4
2017-Sep-21 17:30N 47°24' W 004°10'2 3.4
2017-Sep-21 17:00N 47°24' W 004°07'3 1.5
2017-Sep-21 15:21N 47°22' W 004°11'1 3.4
2017-Sep-21 14:59N 47°23' W 004°10'2 1.1
2017-Sep-21 13:11N 47°22' W 004°12'1 3.4
2017-Sep-21 12:51N 47°23' W 004°11'1 1.7
2017-Sep-21 12:30N 47°23' W 004°10'7 1.2
2017-Sep-21 06:28N 47°30' W 004°07'2 1.6
2017-Sep-21 05:07N 47°28' W 004°06'2 3.4
2017-Sep-21 04:27N 47°26' W 004°08'5 3.3
2017-Sep-21 02:51N 47°21' W 004°11'2 3.4
2017-Sep-21 02:18N 47°20' W 004°10'1 3.5
2017-Sep-21 01:58N 47°19' W 004°09'2 3.6
2017-Sep-21 01:26N 47°17' W 004°09'1 3.0
2017-Sep-21 01:00N 47°16' W 004°07'2 1.5
2017-Sep-20 23:55N 47°16' W 004°10'2 3.8
2017-Sep-20 23:30N 47°14' W 004°10'2 3.2
2017-Sep-20 23:00N 47°13' W 004°08'2 3.5
2017-Sep-20 22:30N 47°13' W 004°06'2 3.5
2017-Sep-20 22:00N 47°13' W 004°03'2 3.5
2017-Sep-20 21:30N 47°13' W 004°00'2 3.6
2017-Sep-20 21:00N 47°14' W 003°58'2 3.6
2017-Sep-20 20:28N 47°15' W 003°55'2 3.9
2017-Sep-20 20:00N 47°15' W 003°53'1 2.0
2017-Sep-20 19:23N 47°14' W 003°52'2 3.2
2017-Sep-20 18:46N 47°13' W 003°54'1 3.3
2017-Sep-20 18:28N 47°12' W 003°55'0 0.3
2017-Sep-20 17:51N 47°12' W 003°55'1 3.2
2017-Sep-20 17:28N 47°11' W 003°55'3 3.2
2017-Sep-20 16:33N 47°08' W 003°55'1 3.7
2017-Sep-20 16:18N 47°07' W 003°55'5 8.1
2017-Sep-20 15:42N 47°02' W 003°57'1 4.2
2017-Sep-20 15:25N 47°01' W 003°58'1 2.4
2017-Sep-20 15:00N 47°02' W 003°57'2 1.2
2017-Sep-20 13:46N 47°02' W 003°59'1 3.1
2017-Sep-20 13:30N 47°01' W 003°58'2 3.0
2017-Sep-20 12:59N 47°03' W 003°57'1 2.9
2017-Sep-20 12:30N 47°04' W 003°55'3 0.4
2017-Sep-20 03:57N 47°07' W 003°55'3 6.1
2017-Sep-20 03:27N 47°10' W 003°55'5 8.6
2017-Sep-20 02:52N 47°15' W 003°55'3 8.2
2017-Sep-20 02:31N 47°18' W 003°55'5 8.3
2017-Sep-20 01:54N 47°23' W 003°55'4 8.2
2017-Sep-20 01:28N 47°27' W 003°55'4 8.3
2017-Sep-20 00:58N 47°31' W 003°55'9 8.1
2017-Sep-19 23:53N 47°40' W 003°55'10 8.4
2017-Sep-19 22:38N 47°50' W 003°56'2 1.9
2017-Sep-19 21:44N 47°52' W 003°55'2 7.7
2017-Sep-19 21:30N 47°50' W 003°55'4 7.5
2017-Sep-19 21:00N 47°46' W 003°54'3 6.6
2017-Sep-19 20:30N 47°43' W 003°52'2 4.8
2017-Sep-19 20:00N 47°41' W 003°50'2 3.6
2017-Sep-19 19:31N 47°41' W 003°48'2 2.9
2017-Sep-19 18:42N 47°40' W 003°45'3 2.6
2017-Sep-19 17:39N 47°38' W 003°46'0 3.2
2017-Sep-19 17:30N 47°37' W 003°46'2 3.5
2017-Sep-19 16:53N 47°37' W 003°49'1 3.5
2017-Sep-19 16:30N 47°36' W 003°51'2 1.3
2017-Sep-19 14:52N 47°35' W 003°49'1 3.5
2017-Sep-19 14:30N 47°35' W 003°47'2 3.0
2017-Sep-19 14:00N 47°34' W 003°45'2 2.9
2017-Sep-19 13:28N 47°34' W 003°43'1 2.9
2017-Sep-19 13:00N 47°33' W 003°44'4 1.4
2017-Sep-19 10:34N 47°35' W 003°49'0 3.6
2017-Sep-19 10:30N 47°35' W 003°49'2 3.0
2017-Sep-19 10:00N 47°35' W 003°47'1 1.4
2017-Sep-19 09:17N 47°34' W 003°45'1 3.3
2017-Sep-19 09:01N 47°33' W 003°45'0 0.2
2017-Sep-19 07:45N 47°34' W 003°45'1 3.5
2017-Sep-19 07:30N 47°34' W 003°45'2 3.4
2017-Sep-19 06:53N 47°36' W 003°47'7 3.0
2017-Sep-19 04:38N 47°41' W 003°53'0 0.4
2017-Sep-19 04:30N 47°41' W 003°53'9 3.3
2017-Sep-19 01:42N 47°51' W 003°56'2 7.2
2017-Sep-19 01:29N 47°49' W 003°55'5 6.2
2017-Sep-19 00:45N 47°45' W 003°54'2 6.2
2017-Sep-19 00:26N 47°43' W 003°54'2 4.2
2017-Sep-19 00:00N 47°41' W 003°53'2 2.9
2017-Sep-18 23:27N 47°39' W 003°53'1 1.6
2017-Sep-18 22:53N 47°40' W 003°53'1 2.6
2017-Sep-18 22:18N 47°39' W 003°53'1 2.4
2017-Sep-18 21:43N 47°40' W 003°52'1 2.7
2017-Sep-18 21:16N 47°39' W 003°53'1 3.5
2017-Sep-18 21:01N 47°38' W 003°54'6 0.9
2017-Sep-18 14:09N 47°35' W 003°46'3 2.4
2017-Sep-18 12:48N 47°32' W 003°48'1 3.5
2017-Sep-18 12:30N 47°32' W 003°49'2 3.1
2017-Sep-18 12:00N 47°33' W 003°51'2 3.8
2017-Sep-18 11:29N 47°32' W 003°54'1 1.8
2017-Sep-18 11:00N 47°33' W 003°53'1 2.8
2017-Sep-18 10:30N 47°33' W 003°51'2 3.1
2017-Sep-18 10:00N 47°32' W 003°49'3 2.7
2017-Sep-18 08:57N 47°33' W 003°45'2 3.5
2017-Sep-18 08:30N 47°35' W 003°46'14 2.8
2017-Sep-18 03:42N 47°45' W 003°59'6 8.1
2017-Sep-18 03:01N 47°49' W 004°05'1 8.2
2017-Sep-18 02:50N 47°49' W 004°07'  
2017-Sep-15 22:38N 47°49' W 004°02'13 3.3
2017-Sep-15 18:39N 47°38' W 003°52'1 3.2
2017-Sep-15 18:19N 47°38' W 003°50'1 0.7
2017-Sep-15 16:36N 47°38' W 003°49'0 3.5
2017-Sep-15 16:30N 47°38' W 003°48'2 3.1
2017-Sep-15 16:01N 47°38' W 003°46'1 2.5
2017-Sep-15 15:30N 47°37' W 003°45'2 3.2
2017-Sep-15 14:59N 47°35' W 003°45'3 1.2
2017-Sep-15 12:40N 47°33' W 003°47'1 3.6
2017-Sep-15 12:30N 47°32' W 003°48'1 2.1
2017-Sep-15 11:52N 47°32' W 003°50'1 2.1
2017-Sep-15 11:24N 47°33' W 003°51'1 2.9
2017-Sep-15 11:00N 47°34' W 003°52'2 3.0
2017-Sep-15 10:27N 47°32' W 003°54'1 3.0
2017-Sep-15 10:01N 47°34' W 003°53'2 3.1
2017-Sep-15 09:30N 47°33' W 003°51'1 2.0
2017-Sep-15 08:56N 47°34' W 003°52'2 2.8
2017-Sep-15 08:19N 47°33' W 003°54'0 1.4
2017-Sep-15 08:00N 47°33' W 003°53'7 2.8
2017-Sep-15 05:23N 47°34' W 003°42'1 3.4
2017-Sep-15 05:00N 47°35' W 003°43'2 3.6
2017-Sep-15 04:28N 47°37' W 003°44'12 3.4
2017-Sep-15 00:58N 47°47' W 003°54'4 6.7
2017-Sep-15 00:27N 47°44' W 003°51'2 3.1
2017-Sep-14 23:49N 47°43' W 003°49'0 0.5
2017-Sep-14 23:21N 47°42' W 003°49'1 1.3
2017-Sep-14 22:25N 47°41' W 003°49'2 2.9
2017-Sep-14 21:54N 47°40' W 003°49'2 0.9
2017-Sep-14 19:46N 47°39' W 003°51'7 3.0
2017-Sep-14 17:17N 47°33' W 003°57'1 3.5
2017-Sep-14 17:00N 47°32' W 003°58'2 3.6
2017-Sep-14 16:30N 47°32' W 004°01'2 3.6
2017-Sep-14 16:00N 47°31' W 004°03'1 1.4
2017-Sep-14 15:20N 47°30' W 004°04'1 3.4
2017-Sep-14 15:00N 47°30' W 004°03'2 3.1
2017-Sep-14 14:30N 47°29' W 004°00'2 3.5
2017-Sep-14 14:00N 47°30' W 003°58'2 3.5
2017-Sep-14 13:30N 47°31' W 003°56'2 3.5
2017-Sep-14 13:00N 47°31' W 003°53'2 3.4
2017-Sep-14 12:30N 47°32' W 003°51'1 1.5
2017-Sep-14 12:00N 47°32' W 003°50'2 3.3
2017-Sep-14 11:22N 47°34' W 003°52'1 3.3
2017-Sep-14 11:00N 47°33' W 003°53'1 1.2
2017-Sep-14 10:26N 47°33' W 003°54'1 2.5
2017-Sep-14 09:57N 47°33' W 003°52'1 3.1
2017-Sep-14 09:30N 47°32' W 003°51'1 2.8
2017-Sep-14 09:00N 47°32' W 003°49'1 2.0
2017-Sep-14 08:31N 47°32' W 003°48'3 2.8
2017-Sep-14 07:28N 47°34' W 003°45'2 3.3
2017-Sep-14 07:00N 47°35' W 003°45'3 3.3
2017-Sep-14 06:12N 47°38' W 003°46'1 3.4
2017-Sep-14 06:00N 47°39' W 003°46'3 3.4
2017-Sep-14 04:58N 47°42' W 003°48'7 7.4
2017-Sep-14 03:59N 47°46' W 003°57'9 8.4
2017-Sep-14 02:53N 47°50' W 004°09'1 0.0
2017-Sep-13 01:01N 47°50' W 004°10'16 3.9
2017-Sep-12 20:54N 47°44' W 003°49'2 4.7
2017-Sep-12 20:25N 47°42' W 003°46'2 4.7
2017-Sep-12 20:00N 47°41' W 003°44'1 1.6
2017-Sep-12 19:30N 47°41' W 003°43'2 3.2
2017-Sep-12 19:01N 47°39' W 003°42'2 2.6
2017-Sep-12 18:04N 47°37' W 003°43'0 3.8
2017-Sep-12 18:00N 47°37' W 003°43'3 3.1
2017-Sep-12 16:59N 47°34' W 003°46'3 2.0
2017-Sep-12 15:41N 47°32' W 003°49'0 1.9
2017-Sep-12 15:29N 47°32' W 003°49'2 3.4
2017-Sep-12 14:54N 47°33' W 003°52'1 2.7
2017-Sep-12 14:30N 47°34' W 003°51'1 2.5
2017-Sep-12 14:00N 47°33' W 003°53'1 2.4
2017-Sep-12 13:29N 47°33' W 003°54'1 2.7
2017-Sep-12 13:01N 47°34' W 003°53'1 0.7
2017-Sep-12 12:00N 47°34' W 003°53'1 0.9
2017-Sep-12 10:41N 47°33' W 003°53'1 3.4
2017-Sep-12 10:30N 47°33' W 003°53'2 3.4
2017-Sep-12 10:00N 47°32' W 003°50'2 3.0
2017-Sep-12 09:26N 47°34' W 003°50'2 2.9
2017-Sep-12 08:43N 47°36' W 003°52'1 0.6
2017-Sep-12 07:51N 47°36' W 003°52'1 3.2
2017-Sep-12 07:29N 47°36' W 003°51'2 3.2
2017-Sep-12 07:00N 47°37' W 003°49'2 3.2
2017-Sep-12 06:24N 47°39' W 003°51'1 3.2
2017-Sep-12 06:00N 47°39' W 003°49'3 3.1
2017-Sep-12 04:59N 47°43' W 003°50'9 8.6
2017-Sep-12 03:58N 47°47' W 004°01'  
Track history (hours):
 
Tides and Currents Weather Stations Pressure Air Temp Water Temp Dewpoint Dewpoint Depression Visibility Wind Speed Wind Dir Waves Ship Positions

Frugy

Last reported at 2017-Sep-22 01:00 UTC. Time now 2017-Sep-22 01:13 UTC.
Position N 47°49' W 003°56'.

Length 16 m.

Type: Fishing. MMSI: 228218000.

Date/timePositionNaut miles runAvg speedWind from/ knotsBaromVisibWave heightAir tempDewpointWater temp
2017-Sep-22 01:00N 47°49' W 003°56'4 8.2
2017-Sep-22 00:30N 47°45' W 003°56'4 8.1
2017-Sep-21 23:58N 47°41' W 003°57'4 7.7
2017-Sep-21 23:29N 47°37' W 003°59'5 7.8
2017-Sep-21 22:55N 47°33' W 004°02'3 7.8
2017-Sep-21 22:29N 47°30' W 004°05'4 7.7
2017-Sep-21 21:57N 47°27' W 004°08'1 3.2
2017-Sep-21 21:30N 47°26' W 004°08'3 0.7
2017-Sep-21 17:38N 47°23' W 004°10'0 3.4
2017-Sep-21 17:30N 47°24' W 004°10'2 3.4
2017-Sep-21 17:00N 47°24' W 004°07'3 1.5
2017-Sep-21 15:21N 47°22' W 004°11'1 3.4
2017-Sep-21 14:59N 47°23' W 004°10'2 1.1
2017-Sep-21 13:11N 47°22' W 004°12'1 3.4
2017-Sep-21 12:51N 47°23' W 004°11'1 1.7
2017-Sep-21 12:30N 47°23' W 004°10'7 1.2
2017-Sep-21 06:28N 47°30' W 004°07'2 1.6
2017-Sep-21 05:07N 47°28' W 004°06'2 3.4
2017-Sep-21 04:27N 47°26' W 004°08'5 3.3
2017-Sep-21 02:51N 47°21' W 004°11'2 3.4
2017-Sep-21 02:18N 47°20' W 004°10'1 3.5
2017-Sep-21 01:58N 47°19' W 004°09'2 3.6
2017-Sep-21 01:26N 47°17' W 004°09'1 3.0
2017-Sep-21 01:00N 47°16' W 004°07'2 1.5
2017-Sep-20 23:55N 47°16' W 004°10'2 3.8
2017-Sep-20 23:30N 47°14' W 004°10'2 3.2
2017-Sep-20 23:00N 47°13' W 004°08'2 3.5
2017-Sep-20 22:30N 47°13' W 004°06'2 3.5
2017-Sep-20 22:00N 47°13' W 004°03'2 3.5
2017-Sep-20 21:30N 47°13' W 004°00'2 3.6
2017-Sep-20 21:00N 47°14' W 003°58'2 3.6
2017-Sep-20 20:28N 47°15' W 003°55'2 3.9
2017-Sep-20 20:00N 47°15' W 003°53'1 2.0
2017-Sep-20 19:23N 47°14' W 003°52'2 3.2
2017-Sep-20 18:46N 47°13' W 003°54'1 3.3
2017-Sep-20 18:28N 47°12' W 003°55'0 0.3
2017-Sep-20 17:51N 47°12' W 003°55'1 3.2
2017-Sep-20 17:28N 47°11' W 003°55'3 3.2
2017-Sep-20 16:33N 47°08' W 003°55'1 3.7
2017-Sep-20 16:18N 47°07' W 003°55'5 8.1
2017-Sep-20 15:42N 47°02' W 003°57'1 4.2
2017-Sep-20 15:25N 47°01' W 003°58'1 2.4
2017-Sep-20 15:00N 47°02' W 003°57'2 1.2
2017-Sep-20 13:46N 47°02' W 003°59'1 3.1
2017-Sep-20 13:30N 47°01' W 003°58'2 3.0
2017-Sep-20 12:59N 47°03' W 003°57'1 2.9
2017-Sep-20 12:30N 47°04' W 003°55'3 0.4
2017-Sep-20 03:57N 47°07' W 003°55'3 6.1
2017-Sep-20 03:27N 47°10' W 003°55'5 8.6
2017-Sep-20 02:52N 47°15' W 003°55'3 8.2
2017-Sep-20 02:31N 47°18' W 003°55'5 8.3
2017-Sep-20 01:54N 47°23' W 003°55'4 8.2
2017-Sep-20 01:28N 47°27' W 003°55'4 8.3
2017-Sep-20 00:58N 47°31' W 003°55'9 8.1
2017-Sep-19 23:53N 47°40' W 003°55'10 8.4
2017-Sep-19 22:38N 47°50' W 003°56'2 1.9
2017-Sep-19 21:44N 47°52' W 003°55'2 7.7
2017-Sep-19 21:30N 47°50' W 003°55'4 7.5
2017-Sep-19 21:00N 47°46' W 003°54'3 6.6
2017-Sep-19 20:30N 47°43' W 003°52'2 4.8
2017-Sep-19 20:00N 47°41' W 003°50'2 3.6
2017-Sep-19 19:31N 47°41' W 003°48'2 2.9
2017-Sep-19 18:42N 47°40' W 003°45'3 2.6
2017-Sep-19 17:39N 47°38' W 003°46'0 3.2
2017-Sep-19 17:30N 47°37' W 003°46'2 3.5
2017-Sep-19 16:53N 47°37' W 003°49'1 3.5
2017-Sep-19 16:30N 47°36' W 003°51'2 1.3
2017-Sep-19 14:52N 47°35' W 003°49'1 3.5
2017-Sep-19 14:30N 47°35' W 003°47'2 3.0
2017-Sep-19 14:00N 47°34' W 003°45'2 2.9
2017-Sep-19 13:28N 47°34' W 003°43'1 2.9
2017-Sep-19 13:00N 47°33' W 003°44'4 1.4
2017-Sep-19 10:34N 47°35' W 003°49'0 3.6
2017-Sep-19 10:30N 47°35' W 003°49'2 3.0
2017-Sep-19 10:00N 47°35' W 003°47'1 1.4
2017-Sep-19 09:17N 47°34' W 003°45'1 3.3
2017-Sep-19 09:01N 47°33' W 003°45'0 0.2
2017-Sep-19 07:45N 47°34' W 003°45'1 3.5
2017-Sep-19 07:30N 47°34' W 003°45'2 3.4
2017-Sep-19 06:53N 47°36' W 003°47'7 3.0
2017-Sep-19 04:38N 47°41' W 003°53'0 0.4
2017-Sep-19 04:30N 47°41' W 003°53'9 3.3
2017-Sep-19 01:42N 47°51' W 003°56'2 7.2
2017-Sep-19 01:29N 47°49' W 003°55'5 6.2
2017-Sep-19 00:45N 47°45' W 003°54'2 6.2
2017-Sep-19 00:26N 47°43' W 003°54'2 4.2
2017-Sep-19 00:00N 47°41' W 003°53'2 2.9
2017-Sep-18 23:27N 47°39' W 003°53'1 1.6
2017-Sep-18 22:53N 47°40' W 003°53'1 2.6
2017-Sep-18 22:18N 47°39' W 003°53'1 2.4
2017-Sep-18 21:43N 47°40' W 003°52'1 2.7
2017-Sep-18 21:16N 47°39' W 003°53'1 3.5
2017-Sep-18 21:01N 47°38' W 003°54'6 0.9
2017-Sep-18 14:09N 47°35' W 003°46'3 2.4
2017-Sep-18 12:48N 47°32' W 003°48'1 3.5
2017-Sep-18 12:30N 47°32' W 003°49'2 3.1
2017-Sep-18 12:00N 47°33' W 003°51'2 3.8
2017-Sep-18 11:29N 47°32' W 003°54'1 1.8
2017-Sep-18 11:00N 47°33' W 003°53'1 2.8
2017-Sep-18 10:30N 47°33' W 003°51'2 3.1
2017-Sep-18 10:00N 47°32' W 003°49'3 2.7
2017-Sep-18 08:57N 47°33' W 003°45'2 3.5
2017-Sep-18 08:30N 47°35' W 003°46'14 2.8
2017-Sep-18 03:42N 47°45' W 003°59'6 8.1
2017-Sep-18 03:01N 47°49' W 004°05'1 8.2
2017-Sep-18 02:50N 47°49' W 004°07'  
2017-Sep-15 22:38N 47°49' W 004°02'13 3.3
2017-Sep-15 18:39N 47°38' W 003°52'1 3.2
2017-Sep-15 18:19N 47°38' W 003°50'1 0.7
2017-Sep-15 16:36N 47°38' W 003°49'0 3.5
2017-Sep-15 16:30N 47°38' W 003°48'2 3.1
2017-Sep-15 16:01N 47°38' W 003°46'1 2.5
2017-Sep-15 15:30N 47°37' W 003°45'2 3.2
2017-Sep-15 14:59N 47°35' W 003°45'3 1.2
2017-Sep-15 12:40N 47°33' W 003°47'1 3.6
2017-Sep-15 12:30N 47°32' W 003°48'1 2.1
2017-Sep-15 11:52N 47°32' W 003°50'1 2.1
2017-Sep-15 11:24N 47°33' W 003°51'1 2.9
2017-Sep-15 11:00N 47°34' W 003°52'2 3.0
2017-Sep-15 10:27N 47°32' W 003°54'1 3.0
2017-Sep-15 10:01N 47°34' W 003°53'2 3.1
2017-Sep-15 09:30N 47°33' W 003°51'1 2.0
2017-Sep-15 08:56N 47°34' W 003°52'2 2.8
2017-Sep-15 08:19N 47°33' W 003°54'0 1.4
2017-Sep-15 08:00N 47°33' W 003°53'7 2.8
2017-Sep-15 05:23N 47°34' W 003°42'1 3.4
2017-Sep-15 05:00N 47°35' W 003°43'2 3.6
2017-Sep-15 04:28N 47°37' W 003°44'12 3.4
2017-Sep-15 00:58N 47°47' W 003°54'4 6.7
2017-Sep-15 00:27N 47°44' W 003°51'2 3.1
2017-Sep-14 23:49N 47°43' W 003°49'0 0.5
2017-Sep-14 23:21N 47°42' W 003°49'1 1.3
2017-Sep-14 22:25N 47°41' W 003°49'2 2.9
2017-Sep-14 21:54N 47°40' W 003°49'2 0.9
2017-Sep-14 19:46N 47°39' W 003°51'7 3.0
2017-Sep-14 17:17N 47°33' W 003°57'1 3.5
2017-Sep-14 17:00N 47°32' W 003°58'2 3.6
2017-Sep-14 16:30N 47°32' W 004°01'2 3.6
2017-Sep-14 16:00N 47°31' W 004°03'1 1.4
2017-Sep-14 15:20N 47°30' W 004°04'1 3.4
2017-Sep-14 15:00N 47°30' W 004°03'2 3.1
2017-Sep-14 14:30N 47°29' W 004°00'2 3.5
2017-Sep-14 14:00N 47°30' W 003°58'2 3.5
2017-Sep-14 13:30N 47°31' W 003°56'2 3.5
2017-Sep-14 13:00N 47°31' W 003°53'2 3.4
2017-Sep-14 12:30N 47°32' W 003°51'1 1.5
2017-Sep-14 12:00N 47°32' W 003°50'2 3.3
2017-Sep-14 11:22N 47°34' W 003°52'1 3.3
2017-Sep-14 11:00N 47°33' W 003°53'1 1.2
2017-Sep-14 10:26N 47°33' W 003°54'1 2.5
2017-Sep-14 09:57N 47°33' W 003°52'1 3.1
2017-Sep-14 09:30N 47°32' W 003°51'1 2.8
2017-Sep-14 09:00N 47°32' W 003°49'1 2.0
2017-Sep-14 08:31N 47°32' W 003°48'3 2.8
2017-Sep-14 07:28N 47°34' W 003°45'2 3.3
2017-Sep-14 07:00N 47°35' W 003°45'3 3.3
2017-Sep-14 06:12N 47°38' W 003°46'1 3.4
2017-Sep-14 06:00N 47°39' W 003°46'3 3.4
2017-Sep-14 04:58N 47°42' W 003°48'7 7.4
2017-Sep-14 03:59N 47°46' W 003°57'9 8.4
2017-Sep-14 02:53N 47°50' W 004°09'1 0.0
2017-Sep-13 01:01N 47°50' W 004°10'16 3.9
2017-Sep-12 20:54N 47°44' W 003°49'2 4.7
2017-Sep-12 20:25N 47°42' W 003°46'2 4.7
2017-Sep-12 20:00N 47°41' W 003°44'1 1.6
2017-Sep-12 19:30N 47°41' W 003°43'2 3.2
2017-Sep-12 19:01N 47°39' W 003°42'2 2.6
2017-Sep-12 18:04N 47°37' W 003°43'0 3.8
2017-Sep-12 18:00N 47°37' W 003°43'3 3.1
2017-Sep-12 16:59N 47°34' W 003°46'3 2.0
2017-Sep-12 15:41N 47°32' W 003°49'0 1.9
2017-Sep-12 15:29N 47°32' W 003°49'2 3.4
2017-Sep-12 14:54N 47°33' W 003°52'1 2.7
2017-Sep-12 14:30N 47°34' W 003°51'1 2.5
2017-Sep-12 14:00N 47°33' W 003°53'1 2.4
2017-Sep-12 13:29N 47°33' W 003°54'1 2.7
2017-Sep-12 13:01N 47°34' W 003°53'1 0.7
2017-Sep-12 12:00N 47°34' W 003°53'1 0.9
2017-Sep-12 10:41N 47°33' W 003°53'1 3.4
2017-Sep-12 10:30N 47°33' W 003°53'2 3.4
2017-Sep-12 10:00N 47°32' W 003°50'2 3.0
2017-Sep-12 09:26N 47°34' W 003°50'2 2.9
2017-Sep-12 08:43N 47°36' W 003°52'1 0.6
2017-Sep-12 07:51N 47°36' W 003°52'1 3.2
2017-Sep-12 07:29N 47°36' W 003°51'2 3.2
2017-Sep-12 07:00N 47°37' W 003°49'2 3.2
2017-Sep-12 06:24N 47°39' W 003°51'1 3.2
2017-Sep-12 06:00N 47°39' W 003°49'3 3.1
2017-Sep-12 04:59N 47°43' W 003°50'9 8.6
2017-Sep-12 03:58N 47°47' W 004°01'  

Dump ship's entire track history